AirNav   Air Wisconsin pilot careers
 
 806 users online  

3Y3 Winterset Municipal Airport
Winterset, Iowa, USA

GOING TO WINTERSET?


FAA INFORMATION EFFECTIVE 31 JANUARY 2019

Location

FAA Identifier: 3Y3
Lat/Long: 41-21-46.1000N / 094-01-16.3000W
41-21.768333N / 094-01.271667W
41.3628056 / -94.0211944
(estimated)
Elevation: 1115.5 ft. / 340.0 m (surveyed)
Variation: 02E (2010)
From city: 2 miles N of WINTERSET, IA
Time zone: UTC -6 (UTC -5 during Daylight Saving Time)
Zip code: 50273

Airport Operations

Airport use: Open to the public
Activation date: 01/1970
Control tower: no
ARTCC: MINNEAPOLIS CENTER
FSS: FORT DODGE FLIGHT SERVICE STATION
NOTAMs facility: FOD (NOTAM-D service available)
Attendance: MON-FRI 0800-1700, ALL SAT-SUN ON CALL
Pattern altitude: 1915.5 ft. MSL
Wind indicator: lighted
Segmented circle: no
Lights: ACTVT MIRL RY 14/32 & PAPI RYS 14 & 32 - CTAF.
Beacon: white-green (lighted land airport)
Operates sunset to sunrise.

Airport Communications

CTAF/UNICOM: 122.7
DES MOINES APPROACH: 135.2 [0600-2000]
DES MOINES DEPARTURE: 135.2 [0600-2000]
WX ASOS at DSM (19 nm NE): PHONE 515-974-8013

Nearby radio navigation aids

VOR radial/distance  VOR name  Freq  Var
DSMr248/17.4DES MOINES VORTAC117.5007E

Airport Services

Fuel available: 100LL JET-A
Parking: hangars and tiedowns
Airframe service: MAJOR
Powerplant service: MAJOR
Bottled oxygen: NONE
Bulk oxygen: NONE

Runway Information

Runway 14/32

Dimensions: 3002 x 50 ft. / 915 x 15 m
Surface: asphalt, in good condition
Runway edge lights: non-standard
MIRL - RWY 14/32 ENDS HAVE SIX THLD LGTS AND ALL WHITE LENSES ALONG RWY LEN.
Gradient: NW.
RUNWAY 14  RUNWAY 32
Latitude: 41-21.965163N41-21.572028N
Longitude: 094-01.471078W094-01.073435W
Elevation: 1115.5 ft.1093.8 ft.
Gradient: 0.7% UP
Traffic pattern: leftleft
Runway heading: 140 magnetic, 142 true320 magnetic, 322 true
Displaced threshold: 175 ft.no
Markings: nonprecision, in good conditionnonprecision, in good condition
Visual slope indicator: 2-light PAPI on left (3.00 degrees glide path)2-light PAPI on left (3.00 degrees glide path)
Touchdown point: yes, no lightsyes, no lights
Obstructions: 15 ft. road, 200 ft. from runway, 45 ft. right of centerline, 1:1 slope to clear
15 FT ROAD 140 FT FM RY END; ALSO 20' BUILDING 130' FROM DISPLACED THRESHOLD 200' RIGHT ON APPROACH.
5 ft. trees, 260 ft. from runway, 83 ft. right of centerline, 12:1 slope to clear
8' TREE 130' FROM RUNWAY END 90' RIGHT ON APPROACH

Airport Ownership and Management from official FAA records

Ownership: Publicly-owned
Owner: WNTRSET ARPT AUTH
3405 NORTH 8TH AVENUE
WINTERSET, IA 50273
Phone (515) 468-8895
GREG HARRISON - CHAIRMAN, ARPT AUTHORITY.
Manager: GREG HARRISON
3405 NORTH 8TH AVE
WINTERSET, IA 50273
Phone (515) 468-8895
EMAIL ADDRESS: YEAGER.HAL@GMAIL.COM (ALL LOWER CASE)

Airport Operational Statistics

Aircraft based on the field: 32
Single engine airplanes: 29
Multi engine airplanes: 2
Ultralights: 1
    
Aircraft operations: avg 91/week *
52% transient general aviation
48% local general aviation
* for 12-month period ending 04 October 2017

Additional Remarks

ULTRALIGHT & SKY DIVING ACTIVITY ON & INVOF ARPT.
RY 32 END SAFETY AREA EXTENDS ONLY 58'; SHARP DROP AT THAT POINT.
INADQT CLNC FOR HLDG ON THE TURNAROUND AT THE THLD OF RY 32.
RY 32 IS CALM WIND RY.

Instrument Procedures

NOTE: All procedures below are presented as PDF files. If you need a reader for these files, you should download the free Adobe Reader.

NOT FOR NAVIGATION. Please procure official charts for flight.
FAA instrument procedures published for use from 31 January 2019 at 0901Z to 28 February 2019 at 0900Z.

 
IAPs - Instrument Approach Procedures
RNAV (GPS) RWY 14   download (157KB)
RNAV (GPS) RWY 32   download (149KB)
VOR/DME-A   download (145KB)
NOTE: Special Take-Off Minimums/Departure Procedures apply   download (233KB)

Other nearby airports with instrument procedures:

KDSM - Des Moines International Airport (19 nm NE)
KGFZ - Greenfield Municipal Airport (19 nm W)
I75 - Osceola Municipal Airport (24 nm SE)
KCSQ - Creston Municipal Airport (26 nm SW)
KGCT - Guthrie County Regional Airport (27 nm NW)
 
Loc | Ops | Rwys | IFR | FBO | Links
Com | Nav | Svcs | Stats | Notes
Area around 3Y3 (Winterset Municipal Airport)
 
Road maps at: MapQuest Bing Google
 
Aerial photo
WARNING: Photo may not be current or correct
Aerial photo of 3Y3 (Winterset Municipal Airport)
Photo by Michael Sawyer
Photo taken 20-Sep-2013
looking southeast.

Do you have a better or more recent aerial photo of Winterset Municipal Airport that you would like to share? If so, please send us your photo.

 
Sectional chart

 
Airport distance calculator
Flying to Winterset Municipal Airport? Find the distance to fly.

From to 3Y3

Sunrise and sunset
Times for 17-Feb-2019
 Local
(UTC-6)
 Zulu
(UTC)
Morning civil twilight06:4112:41
Sunrise07:0913:09
Sunset17:5123:51
Evening civil twilight18:1900:19

Current date and time
Zulu (UTC)  18-Feb-2019 03:10:28
Local (UTC-6)  17-Feb-2019 21:10:28
 
METAR
KDSM 
19nm NE 
180254Z 31009KT 5SM -SN BR FEW008 BKN019 OVC024 M06/M07 A3004 RMK AO2 SLP186 P0000 60001 T10611072 51029
KI75 
24nm SE 
180255Z AUTO 30009KT 7SM -SN M05/M06 A3003 RMK AO2 T10511065
KCSQ 
26nm SW 
180255Z AUTO 31015KT 9SM -SN BKN034 BKN040 OVC049 M07/M08 A3006 RMK AO2
KIKV 
28nm NE 
180255Z AUTO 32008KT 3SM -SN SCT014 BKN019 OVC050 M06/M07 A3005 RMK AO2
KPRO 
29nm N 
180255Z AUTO 32010KT 3SM -SN SCT020 OVC026 M07/M07 A3005 RMK AO2 T10661070
KCNC 
36nm SE 
180255Z AUTO 31010KT 7SM -UP OVC010 M05/M05 A3002 RMK AO2
TAF
KDSM 
19nm NE 
180159Z 1802/1824 32008KT 3SM -SN BKN015 OVC030 FM180500 34006KT P6SM BKN015 FM181300 34007KT P6SM BKN025 FM181700 34006KT P6SM BKN040
NOTAMs
Click for the latest NOTAMs
NOTAMs are issued by the DoD/FAA and will open in a separate window not controlled by AirNav.

 

 
 

FBO, Fuel Providers, and Aircraft Ground Support

  
 Business Name 
 
 Contact 
 
 Services / Description 
 
Fuel Prices
 
Comments
  
Winterset Aviation 515-462-1811
no information available

If you are affiliated with Winterset Aviation and would like to show here your services, contact info, web link, logo, and more, click here
100LL Jet A
FS --- $4.39 
SS $4.88 --- 
 Updated 11-Feb-2019
 
   1 read write
FS=Full service
SS=Self service
Update Fuel Prices
 

Would you like to see your business listed on this page?

 If your business provides an interesting product or service to pilots, flight crews, aircraft, or users of the Winterset Municipal Airport, you should consider listing it here.  To start the listing process, click on the button below
 
Add a business
 

Other Pages about Winterset Municipal Airport

Page from the Iowa Airport Directory
 
Update a link
 
Copyright © AirNav, LLC. All rights reserved. Privacy Policy  Contact